sensor_id;sensor_type;location;lat;lon;timestamp;pressure;altitude;pressure_sealevel;temperature;humidity
3960;BME280;1994;48.640;8.894;2023-08-24T00:01:11;96397.28;;;21.47;68.71
3960;BME280;1994;48.640;8.894;2023-08-24T00:03:39;96393.47;;;21.53;68.77
3960;BME280;1994;48.640;8.894;2023-08-24T00:06:05;96401.97;;;21.36;69.32
3960;BME280;1994;48.640;8.894;2023-08-24T00:08:31;96400.69;;;21.34;69.34
3960;BME280;1994;48.640;8.894;2023-08-24T00:10:58;96401.94;;;21.50;68.94
3960;BME280;1994;48.640;8.894;2023-08-24T00:13:24;96398.13;;;21.56;68.47
3960;BME280;1994;48.640;8.894;2023-08-24T00:15:50;96393.56;;;21.48;68.46
3960;BME280;1994;48.640;8.894;2023-08-24T00:18:19;96400.75;;;21.56;68.63
3960;BME280;1994;48.640;8.894;2023-08-24T00:20:44;96394.44;;;21.57;68.38
3960;BME280;1994;48.640;8.894;2023-08-24T00:23:10;96392.09;;;21.69;67.69
3960;BME280;1994;48.640;8.894;2023-08-24T00:25:36;96386.91;;;21.64;68.23
3960;BME280;1994;48.640;8.894;2023-08-24T00:28:02;96389.75;;;21.54;68.77
3960;BME280;1994;48.640;8.894;2023-08-24T00:30:28;96383.28;;;21.60;67.99
3960;BME280;1994;48.640;8.894;2023-08-24T00:32:53;96383.03;;;21.48;68.91
3960;BME280;1994;48.640;8.894;2023-08-24T00:35:19;96380.31;;;21.26;69.61
3960;BME280;1994;48.640;8.894;2023-08-24T00:37:45;96375.44;;;21.06;69.95
3960;BME280;1994;48.640;8.894;2023-08-24T00:40:12;96364.31;;;21.09;70.39
3960;BME280;1994;48.640;8.894;2023-08-24T00:42:42;96355.91;;;21.07;70.50
3960;BME280;1994;48.640;8.894;2023-08-24T00:45:10;96360.91;;;20.95;70.61
3960;BME280;1994;48.640;8.894;2023-08-24T00:47:41;96354.53;;;21.09;70.28
3960;BME280;1994;48.640;8.894;2023-08-24T00:50:08;96357.09;;;21.01;70.39
3960;BME280;1994;48.640;8.894;2023-08-24T00:52:37;96358.06;;;21.05;70.38
3960;BME280;1994;48.640;8.894;2023-08-24T00:55:05;96359.06;;;21.09;70.08
3960;BME280;1994;48.640;8.894;2023-08-24T00:57:32;96350.56;;;20.98;70.29
3960;BME280;1994;48.640;8.894;2023-08-24T01:00:00;96351.81;;;21.01;70.43
3960;BME280;1994;48.640;8.894;2023-08-24T01:02:27;96352.41;;;20.98;70.99
3960;BME280;1994;48.640;8.894;2023-08-24T01:04:53;96350.06;;;21.10;70.76
3960;BME280;1994;48.640;8.894;2023-08-24T01:07:19;96349.09;;;21.06;70.77
3960;BME280;1994;48.640;8.894;2023-08-24T01:09:46;96349.69;;;21.03;70.80
3960;BME280;1994;48.640;8.894;2023-08-24T01:15:28;96342.22;;;20.78;71.49
3960;BME280;1994;48.640;8.894;2023-08-24T01:17:59;96343.50;;;20.67;71.94
3960;BME280;1994;48.640;8.894;2023-08-24T01:20:26;96342.59;;;20.58;72.35
3960;BME280;1994;48.640;8.894;2023-08-24T01:26:23;96343.97;;;20.69;72.09
3960;BME280;1994;48.640;8.894;2023-08-24T01:28:49;96343.97;;;20.69;72.32
3960;BME280;1994;48.640;8.894;2023-08-24T01:31:16;96339.88;;;20.63;72.23
3960;BME280;1994;48.640;8.894;2023-08-24T01:33:43;96336.94;;;20.64;72.39
3960;BME280;1994;48.640;8.894;2023-08-24T01:36:13;96333.94;;;20.71;71.82
3960;BME280;1994;48.640;8.894;2023-08-24T01:38:40;96336.56;;;20.71;71.50
3960;BME280;1994;48.640;8.894;2023-08-24T01:41:30;96334.22;;;20.69;71.69
3960;BME280;1994;48.640;8.894;2023-08-24T01:44:00;96329.06;;;20.78;71.32
3960;BME280;1994;48.640;8.894;2023-08-24T01:46:28;96331.00;;;20.86;71.16
3960;BME280;1994;48.640;8.894;2023-08-24T01:48:55;96327.25;;;20.92;70.92
3960;BME280;1994;48.640;8.894;2023-08-24T01:51:23;96324.81;;;20.95;71.19
3960;BME280;1994;48.640;8.894;2023-08-24T01:53:49;96332.41;;;20.97;70.53
3960;BME280;1994;48.640;8.894;2023-08-24T01:56:16;96324.50;;;20.83;71.15
3960;BME280;1994;48.640;8.894;2023-08-24T01:58:43;96325.63;;;20.64;71.56
3960;BME280;1994;48.640;8.894;2023-08-24T02:01:09;96324.94;;;20.45;72.58
3960;BME280;1994;48.640;8.894;2023-08-24T02:03:36;96326.00;;;20.44;72.90
3960;BME280;1994;48.640;8.894;2023-08-24T02:06:02;96319.97;;;20.57;72.49
3960;BME280;1994;48.640;8.894;2023-08-24T02:08:28;96319.41;;;20.60;72.08
3960;BME280;1994;48.640;8.894;2023-08-24T02:10:54;96316.88;;;20.55;72.41
3960;BME280;1994;48.640;8.894;2023-08-24T02:13:20;96312.00;;;20.62;72.25
3960;BME280;1994;48.640;8.894;2023-08-24T02:15:45;96312.38;;;20.69;72.47
3960;BME280;1994;48.640;8.894;2023-08-24T02:42:26;96305.53;;;20.41;73.65
3960;BME280;1994;48.640;8.894;2023-08-24T02:44:52;96295.00;;;20.41;73.68
3960;BME280;1994;48.640;8.894;2023-08-24T02:47:18;96301.75;;;20.47;73.85
3960;BME280;1994;48.640;8.894;2023-08-24T02:49:44;96312.34;;;20.42;73.82
3960;BME280;1994;48.640;8.894;2023-08-24T02:52:10;96319.38;;;20.33;73.87
3960;BME280;1994;48.640;8.894;2023-08-24T02:54:35;96328.91;;;20.29;74.27
3960;BME280;1994;48.640;8.894;2023-08-24T02:57:01;96322.25;;;20.18;74.70
3960;BME280;1994;48.640;8.894;2023-08-24T02:59:27;96314.06;;;20.19;74.87
3960;BME280;1994;48.640;8.894;2023-08-24T03:01:53;96305.31;;;20.24;74.62
3960;BME280;1994;48.640;8.894;2023-08-24T03:04:19;96294.63;;;20.34;74.26
3960;BME280;1994;48.640;8.894;2023-08-24T03:06:45;96296.66;;;20.37;74.02
3960;BME280;1994;48.640;8.894;2023-08-24T03:09:10;96296.50;;;20.15;74.83
3960;BME280;1994;48.640;8.894;2023-08-24T03:11:36;96296.84;;;19.95;75.67
3960;BME280;1994;48.640;8.894;2023-08-24T03:14:05;96298.22;;;20.06;75.29
3960;BME280;1994;48.640;8.894;2023-08-24T03:16:31;96292.19;;;20.05;75.26
3960;BME280;1994;48.640;8.894;2023-08-24T03:18:56;96290.84;;;20.08;75.44
3960;BME280;1994;48.640;8.894;2023-08-24T03:21:22;96285.44;;;20.18;75.24
3960;BME280;1994;48.640;8.894;2023-08-24T03:23:48;96278.34;;;20.32;75.53
3960;BME280;1994;48.640;8.894;2023-08-24T03:26:23;96279.78;;;20.24;74.98
3960;BME280;1994;48.640;8.894;2023-08-24T03:28:49;96275.47;;;20.15;75.53
3960;BME280;1994;48.640;8.894;2023-08-24T03:31:16;96272.75;;;20.20;75.51
3960;BME280;1994;48.640;8.894;2023-08-24T03:33:45;96270.22;;;20.28;75.40
3960;BME280;1994;48.640;8.894;2023-08-24T03:36:11;96264.09;;;20.19;75.23
3960;BME280;1994;48.640;8.894;2023-08-24T03:38:37;96267.00;;;20.18;75.29
3960;BME280;1994;48.640;8.894;2023-08-24T03:41:03;96260.88;;;20.22;75.60
3960;BME280;1994;48.640;8.894;2023-08-24T03:43:34;96262.22;;;20.20;75.29
3960;BME280;1994;48.640;8.894;2023-08-24T03:46:01;96259.59;;;20.20;75.40
3960;BME280;1994;48.640;8.894;2023-08-24T03:48:27;96248.97;;;20.11;75.71
3960;BME280;1994;48.640;8.894;2023-08-24T03:50:57;96260.03;;;19.95;76.52
3960;BME280;1994;48.640;8.894;2023-08-24T03:53:24;96261.25;;;19.84;77.19
3960;BME280;1994;48.640;8.894;2023-08-24T03:55:51;96253.78;;;19.91;76.87
3960;BME280;1994;48.640;8.894;2023-08-24T03:58:17;96245.81;;;19.96;76.90
3960;BME280;1994;48.640;8.894;2023-08-24T04:00:46;96244.44;;;19.98;77.10
3960;BME280;1994;48.640;8.894;2023-08-24T04:03:13;96251.22;;;19.86;77.22
3960;BME280;1994;48.640;8.894;2023-08-24T04:05:38;96248.13;;;19.84;77.35
3960;BME280;1994;48.640;8.894;2023-08-24T04:08:04;96240.22;;;19.84;77.31
3960;BME280;1994;48.640;8.894;2023-08-24T04:10:30;96245.56;;;19.79;77.52
3960;BME280;1994;48.640;8.894;2023-08-24T04:12:56;96246.56;;;19.83;77.51
3960;BME280;1994;48.640;8.894;2023-08-24T04:15:22;96234.72;;;19.99;77.34
3960;BME280;1994;48.640;8.894;2023-08-24T04:17:49;96245.63;;;20.06;76.67
3960;BME280;1994;48.640;8.894;2023-08-24T04:20:18;96244.03;;;20.10;76.77
3960;BME280;1994;48.640;8.894;2023-08-24T04:22:47;96235.53;;;20.13;76.76
3960;BME280;1994;48.640;8.894;2023-08-24T04:25:12;96230.28;;;20.26;75.95
3960;BME280;1994;48.640;8.894;2023-08-24T04:27:38;96236.63;;;20.25;76.24
3960;BME280;1994;48.640;8.894;2023-08-24T04:30:05;96227.16;;;20.11;76.25
3960;BME280;1994;48.640;8.894;2023-08-24T04:32:32;96226.41;;;20.24;76.16
3960;BME280;1994;48.640;8.894;2023-08-24T04:35:00;96227.56;;;20.18;76.14
3960;BME280;1994;48.640;8.894;2023-08-24T04:37:29;96225.41;;;20.20;76.14
3960;BME280;1994;48.640;8.894;2023-08-24T04:39:59;96223.66;;;20.29;75.69
3960;BME280;1994;48.640;8.894;2023-08-24T04:42:25;96224.06;;;20.36;75.73
3960;BME280;1994;48.640;8.894;2023-08-24T04:44:51;96223.88;;;20.46;75.06
3960;BME280;1994;48.640;8.894;2023-08-24T04:47:16;96219.22;;;20.43;75.33
3960;BME280;1994;48.640;8.894;2023-08-24T04:49:42;96224.75;;;20.55;74.92
3960;BME280;1994;48.640;8.894;2023-08-24T04:52:08;96219.22;;;20.43;75.65
3960;BME280;1994;48.640;8.894;2023-08-24T04:54:34;96222.50;;;20.35;76.08
3960;BME280;1994;48.640;8.894;2023-08-24T04:57:00;96224.44;;;20.16;77.03
3960;BME280;1994;48.640;8.894;2023-08-24T04:59:26;96224.59;;;20.06;77.79
3960;BME280;1994;48.640;8.894;2023-08-24T05:01:51;96225.63;;;20.10;77.88
3960;BME280;1994;48.640;8.894;2023-08-24T05:04:17;96227.38;;;20.14;77.62
3960;BME280;1994;48.640;8.894;2023-08-24T05:06:46;96228.13;;;20.15;77.71
3960;BME280;1994;48.640;8.894;2023-08-24T05:09:14;96227.00;;;20.21;77.44
3960;BME280;1994;48.640;8.894;2023-08-24T05:11:40;96225.03;;;20.13;77.85
3960;BME280;1994;48.640;8.894;2023-08-24T05:14:06;96229.28;;;20.09;77.97
3960;BME280;1994;48.640;8.894;2023-08-24T05:16:32;96231.84;;;20.14;77.96
3960;BME280;1994;48.640;8.894;2023-08-24T05:19:00;96230.09;;;20.23;77.93
3960;BME280;1994;48.640;8.894;2023-08-24T05:21:28;96229.91;;;20.33;77.48
3960;BME280;1994;48.640;8.894;2023-08-24T05:23:54;96228.75;;;20.39;77.52
3960;BME280;1994;48.640;8.894;2023-08-24T05:26:20;96228.56;;;20.49;76.89
3960;BME280;1994;48.640;8.894;2023-08-24T05:28:48;96226.31;;;20.56;76.54
3960;BME280;1994;48.640;8.894;2023-08-24T05:31:17;96217.53;;;20.60;76.32
3960;BME280;1994;48.640;8.894;2023-08-24T05:33:43;96217.63;;;20.69;75.77
3960;BME280;1994;48.640;8.894;2023-08-24T05:36:08;96211.16;;;20.88;75.40
3960;BME280;1994;48.640;8.894;2023-08-24T05:38:37;96207.47;;;21.03;74.59
3960;BME280;1994;48.640;8.894;2023-08-24T05:41:03;96204.13;;;21.11;73.70
3960;BME280;1994;48.640;8.894;2023-08-24T05:43:32;96207.78;;;21.23;73.82
3960;BME280;1994;48.640;8.894;2023-08-24T05:45:58;96207.59;;;21.20;73.78
3960;BME280;1994;48.640;8.894;2023-08-24T05:48:23;96205.56;;;21.17;74.18
3960;BME280;1994;48.640;8.894;2023-08-24T05:50:52;96208.00;;;21.13;74.69
3960;BME280;1994;48.640;8.894;2023-08-24T05:53:18;96207.22;;;21.13;74.42
3960;BME280;1994;48.640;8.894;2023-08-24T05:55:44;96209.00;;;21.04;74.73
3960;BME280;1994;48.640;8.894;2023-08-24T05:58:10;96203.06;;;20.98;75.65
3960;BME280;1994;48.640;8.894;2023-08-24T06:00:36;96210.56;;;21.05;76.35
3960;BME280;1994;48.640;8.894;2023-08-24T06:03:02;96203.31;;;21.10;76.35
3960;BME280;1994;48.640;8.894;2023-08-24T06:05:30;96205.31;;;21.05;76.40
3960;BME280;1994;48.640;8.894;2023-08-24T06:07:57;96205.09;;;21.15;76.03
3960;BME280;1994;48.640;8.894;2023-08-24T06:10:22;96202.34;;;21.20;75.60
3960;BME280;1994;48.640;8.894;2023-08-24T06:12:49;96202.16;;;21.16;76.18
3960;BME280;1994;48.640;8.894;2023-08-24T06:15:15;96200.28;;;21.17;76.16
3960;BME280;1994;48.640;8.894;2023-08-24T06:17:41;96201.50;;;21.33;76.19
3960;BME280;1994;48.640;8.894;2023-08-24T06:20:08;96198.75;;;21.38;75.88
3960;BME280;1994;48.640;8.894;2023-08-24T06:22:37;96206.31;;;21.53;75.65
3960;BME280;1994;48.640;8.894;2023-08-24T06:25:03;96203.34;;;21.68;74.63
3960;BME280;1994;48.640;8.894;2023-08-24T06:27:31;96202.66;;;21.84;74.25
3960;BME280;1994;48.640;8.894;2023-08-24T06:29:57;96206.88;;;21.94;74.31
3960;BME280;1994;48.640;8.894;2023-08-24T06:32:23;96209.75;;;22.06;74.34
3960;BME280;1994;48.640;8.894;2023-08-24T06:34:49;96215.03;;;22.06;74.90
3960;BME280;1994;48.640;8.894;2023-08-24T06:37:15;96209.16;;;22.09;75.08
3960;BME280;1994;48.640;8.894;2023-08-24T06:39:40;96225.31;;;22.16;75.55
3960;BME280;1994;48.640;8.894;2023-08-24T06:42:06;96220.41;;;22.23;75.12
3960;BME280;1994;48.640;8.894;2023-08-24T06:44:32;96231.88;;;22.27;74.61
3960;BME280;1994;48.640;8.894;2023-08-24T06:47:00;96234.22;;;22.28;74.92
3960;BME280;1994;48.640;8.894;2023-08-24T06:49:26;96247.44;;;22.37;73.89
3960;BME280;1994;48.640;8.894;2023-08-24T06:51:52;96250.75;;;22.42;73.34
3960;BME280;1994;48.640;8.894;2023-08-24T06:54:21;96255.88;;;22.39;71.77
3960;BME280;1994;48.640;8.894;2023-08-24T06:56:48;96249.97;;;22.42;71.39
3960;BME280;1994;48.640;8.894;2023-08-24T06:59:14;96257.41;;;22.40;72.02
3960;BME280;1994;48.640;8.894;2023-08-24T07:01:40;96244.13;;;22.45;71.93
3960;BME280;1994;48.640;8.894;2023-08-24T07:04:06;96241.34;;;22.50;72.27
3960;BME280;1994;48.640;8.894;2023-08-24T07:06:35;96250.88;;;22.68;72.42
3960;BME280;1994;48.640;8.894;2023-08-24T07:09:01;96240.50;;;22.80;71.87
3960;BME280;1994;48.640;8.894;2023-08-24T07:11:32;96227.69;;;22.65;71.10
3960;BME280;1994;48.640;8.894;2023-08-24T07:13:57;96222.16;;;22.75;72.47
3960;BME280;1994;48.640;8.894;2023-08-24T07:16:23;96221.25;;;22.88;72.90
3960;BME280;1994;48.640;8.894;2023-08-24T07:18:49;96226.28;;;23.15;71.74
3960;BME280;1994;48.640;8.894;2023-08-24T07:21:15;96226.16;;;23.54;70.76
3960;BME280;1994;48.640;8.894;2023-08-24T07:23:45;96224.41;;;23.66;69.64
3960;BME280;1994;48.640;8.894;2023-08-24T07:26:10;96219.63;;;23.51;69.48
3960;BME280;1994;48.640;8.894;2023-08-24T07:28:36;96219.47;;;23.48;70.00
3960;BME280;1994;48.640;8.894;2023-08-24T07:31:09;96214.78;;;23.28;69.84
3960;BME280;1994;48.640;8.894;2023-08-24T07:33:38;96215.72;;;23.32;70.13
3960;BME280;1994;48.640;8.894;2023-08-24T07:36:05;96212.78;;;23.50;69.99
3960;BME280;1994;48.640;8.894;2023-08-24T07:38:31;96217.69;;;23.77;68.53
3960;BME280;1994;48.640;8.894;2023-08-24T07:40:58;96214.13;;;23.99;68.03
3960;BME280;1994;48.640;8.894;2023-08-24T07:43:24;96211.81;;;24.35;66.59
3960;BME280;1994;48.640;8.894;2023-08-24T07:45:50;96215.19;;;24.44;65.29
3960;BME280;1994;48.640;8.894;2023-08-24T07:48:16;96215.06;;;24.40;65.48
3960;BME280;1994;48.640;8.894;2023-08-24T07:50:41;96217.69;;;24.78;65.24
3960;BME280;1994;48.640;8.894;2023-08-24T07:53:07;96227.91;;;25.17;64.01
3960;BME280;1994;48.640;8.894;2023-08-24T07:55:33;96228.41;;;24.90;63.66
3960;BME280;1994;48.640;8.894;2023-08-24T07:57:59;96232.22;;;25.30;62.42
3960;BME280;1994;48.640;8.894;2023-08-24T08:00:24;96220.31;;;25.36;61.96
3960;BME280;1994;48.640;8.894;2023-08-24T08:02:51;96219.19;;;25.90;61.35
3960;BME280;1994;48.640;8.894;2023-08-24T08:05:17;96226.06;;;26.23;59.08
3960;BME280;1994;48.640;8.894;2023-08-24T08:07:43;96227.31;;;26.74;57.46
3960;BME280;1994;48.640;8.894;2023-08-24T08:10:10;96231.13;;;27.36;55.48
3960;BME280;1994;48.640;8.894;2023-08-24T08:12:38;96235.34;;;28.20;51.74
3960;BME280;1994;48.640;8.894;2023-08-24T08:15:04;96231.28;;;29.19;49.51
3960;BME280;1994;48.640;8.894;2023-08-24T08:17:30;96238.50;;;29.91;46.95
3960;BME280;1994;48.640;8.894;2023-08-24T08:19:56;96248.34;;;29.87;46.89
3960;BME280;1994;48.640;8.894;2023-08-24T08:22:25;96239.91;;;30.68;46.28
3960;BME280;1994;48.640;8.894;2023-08-24T08:24:54;96240.75;;;31.24;45.07
3960;BME280;1994;48.640;8.894;2023-08-24T08:27:22;96237.53;;;31.70;44.81
3960;BME280;1994;48.640;8.894;2023-08-24T08:29:49;96235.91;;;31.07;44.29
3960;BME280;1994;48.640;8.894;2023-08-24T08:32:15;96226.19;;;31.21;44.36
3960;BME280;1994;48.640;8.894;2023-08-24T08:34:41;96226.16;;;31.77;43.25
3960;BME280;1994;48.640;8.894;2023-08-24T08:37:07;96225.31;;;32.46;41.50
3960;BME280;1994;48.640;8.894;2023-08-24T08:39:33;96228.97;;;31.91;42.73
3960;BME280;1994;48.640;8.894;2023-08-24T08:41:59;96236.66;;;32.29;41.96
3960;BME280;1994;48.640;8.894;2023-08-24T08:44:30;96231.38;;;32.79;41.26
3960;BME280;1994;48.640;8.894;2023-08-24T08:46:59;96232.47;;;32.75;40.25
3960;BME280;1994;48.640;8.894;2023-08-24T08:49:26;96234.91;;;32.90;39.90
3960;BME280;1994;48.640;8.894;2023-08-24T08:51:52;96233.88;;;32.62;40.87
3960;BME280;1994;48.640;8.894;2023-08-24T08:54:18;96234.69;;;32.66;40.80
3960;BME280;1994;48.640;8.894;2023-08-24T08:56:48;96229.34;;;32.69;41.12
3960;BME280;1994;48.640;8.894;2023-08-24T08:59:17;96228.78;;;32.90;39.99
3960;BME280;1994;48.640;8.894;2023-08-24T09:01:49;96231.84;;;32.92;40.01
3960;BME280;1994;48.640;8.894;2023-08-24T09:04:19;96224.88;;;32.84;41.13
3960;BME280;1994;48.640;8.894;2023-08-24T09:06:45;96219.66;;;33.05;40.03
3960;BME280;1994;48.640;8.894;2023-08-24T09:09:11;96207.13;;;32.69;40.52
3960;BME280;1994;48.640;8.894;2023-08-24T09:11:37;96201.25;;;33.03;40.69
3960;BME280;1994;48.640;8.894;2023-08-24T09:14:05;96201.56;;;33.63;40.00
3960;BME280;1994;48.640;8.894;2023-08-24T09:16:31;96200.84;;;33.73;40.25
3960;BME280;1994;48.640;8.894;2023-08-24T09:18:58;96197.34;;;33.69;40.11
3960;BME280;1994;48.640;8.894;2023-08-24T09:21:24;96194.03;;;34.14;38.88
3960;BME280;1994;48.640;8.894;2023-08-24T09:23:55;96193.22;;;33.96;39.29
3960;BME280;1994;48.640;8.894;2023-08-24T09:26:37;96190.16;;;34.01;38.74
3960;BME280;1994;48.640;8.894;2023-08-24T09:29:15;96183.59;;;33.81;39.54
3960;BME280;1994;48.640;8.894;2023-08-24T09:31:42;96174.03;;;34.01;39.08
3960;BME280;1994;48.640;8.894;2023-08-24T09:34:10;96168.13;;;33.50;39.79
3960;BME280;1994;48.640;8.894;2023-08-24T09:36:38;96167.94;;;34.39;38.58
3960;BME280;1994;48.640;8.894;2023-08-24T09:39:05;96159.47;;;34.93;38.23
3960;BME280;1994;48.640;8.894;2023-08-24T09:41:46;96153.34;;;34.40;38.02
3960;BME280;1994;48.640;8.894;2023-08-24T09:44:13;96144.09;;;34.83;38.31
3960;BME280;1994;48.640;8.894;2023-08-24T09:46:39;96149.50;;;34.37;38.47
3960;BME280;1994;48.640;8.894;2023-08-24T09:49:07;96144.06;;;34.97;38.15
3960;BME280;1994;48.640;8.894;2023-08-24T09:51:34;96137.94;;;34.79;37.72
3960;BME280;1994;48.640;8.894;2023-08-24T09:54:05;96127.97;;;34.76;38.67
3960;BME280;1994;48.640;8.894;2023-08-24T09:56:39;96121.84;;;35.68;36.83
3960;BME280;1994;48.640;8.894;2023-08-24T09:59:16;96122.38;;;35.46;36.66
3960;BME280;1994;48.640;8.894;2023-08-24T10:01:49;96120.28;;;34.08;39.23
3960;BME280;1994;48.640;8.894;2023-08-24T10:04:24;96112.59;;;33.96;39.43
3960;BME280;1994;48.640;8.894;2023-08-24T10:06:55;96106.44;;;34.20;39.32
3960;BME280;1994;48.640;8.894;2023-08-24T10:10:02;96095.72;;;34.48;39.12
3960;BME280;1994;48.640;8.894;2023-08-24T10:12:32;96101.84;;;33.96;40.30
3960;BME280;1994;48.640;8.894;2023-08-24T10:15:03;96097.25;;;33.96;40.09
3960;BME280;1994;48.640;8.894;2023-08-24T10:17:31;96090.31;;;34.13;39.76
3960;BME280;1994;48.640;8.894;2023-08-24T10:19:58;96081.78;;;34.88;39.06
3960;BME280;1994;48.640;8.894;2023-08-24T10:22:31;96084.81;;;35.04;38.77
3960;BME280;1994;48.640;8.894;2023-08-24T10:24:58;96069.56;;;34.48;39.36
3960;BME280;1994;48.640;8.894;2023-08-24T10:27:26;96068.03;;;34.47;40.04
3960;BME280;1994;48.640;8.894;2023-08-24T10:29:53;96061.84;;;33.70;41.51
3960;BME280;1994;48.640;8.894;2023-08-24T10:32:23;96074.88;;;33.54;42.28
3960;BME280;1994;48.640;8.894;2023-08-24T10:34:50;96075.72;;;33.86;41.79
3960;BME280;1994;48.640;8.894;2023-08-24T10:37:16;96066.50;;;34.29;41.24
3960;BME280;1994;48.640;8.894;2023-08-24T10:39:49;96064.09;;;34.87;40.75
3960;BME280;1994;48.640;8.894;2023-08-24T10:42:17;96071.88;;;34.11;41.49
3960;BME280;1994;48.640;8.894;2023-08-24T10:44:47;96067.19;;;34.68;40.61
3960;BME280;1994;48.640;8.894;2023-08-24T10:47:23;96058.81;;;34.38;40.72
3960;BME280;1994;48.640;8.894;2023-08-24T10:52:34;96053.44;;;34.24;41.22
3960;BME280;1994;48.640;8.894;2023-08-24T10:55:20;96050.28;;;34.78;41.09
3960;BME280;1994;48.640;8.894;2023-08-24T10:57:59;96046.50;;;34.51;41.99
3960;BME280;1994;48.640;8.894;2023-08-24T11:00:32;96032.41;;;35.19;39.09
3960;BME280;1994;48.640;8.894;2023-08-24T11:02:58;96022.63;;;34.67;40.15
3960;BME280;1994;48.640;8.894;2023-08-24T11:05:29;96025.16;;;35.09;39.12
3960;BME280;1994;48.640;8.894;2023-08-24T11:08:05;96033.16;;;35.23;38.71
3960;BME280;1994;48.640;8.894;2023-08-24T11:13:11;96020.78;;;34.43;40.53
3960;BME280;1994;48.640;8.894;2023-08-24T11:15:49;96012.72;;;34.29;40.65
3960;BME280;1994;48.640;8.894;2023-08-24T11:18:27;96012.28;;;34.51;41.16
3960;BME280;1994;48.640;8.894;2023-08-24T11:21:01;96014.75;;;35.11;39.45
3960;BME280;1994;48.640;8.894;2023-08-24T11:23:28;96007.75;;;35.20;39.96
3960;BME280;1994;48.640;8.894;2023-08-24T11:25:56;96008.53;;;35.28;40.15
3960;BME280;1994;48.640;8.894;2023-08-24T11:28:37;96003.38;;;34.68;41.15
3960;BME280;1994;48.640;8.894;2023-08-24T11:31:03;95999.78;;;34.99;40.92
3960;BME280;1994;48.640;8.894;2023-08-24T11:33:29;95994.50;;;35.54;39.40
3960;BME280;1994;48.640;8.894;2023-08-24T11:35:56;95996.13;;;35.41;39.17
3960;BME280;1994;48.640;8.894;2023-08-24T11:38:23;96002.41;;;35.17;39.54
3960;BME280;1994;48.640;8.894;2023-08-24T11:40:48;95998.63;;;35.04;39.57
3960;BME280;1994;48.640;8.894;2023-08-24T11:43:26;95984.66;;;35.30;39.24
3960;BME280;1994;48.640;8.894;2023-08-24T11:45:54;95982.47;;;35.62;39.80
3960;BME280;1994;48.640;8.894;2023-08-24T11:48:25;95989.34;;;35.19;39.84
3960;BME280;1994;48.640;8.894;2023-08-24T11:50:51;95977.75;;;35.22;39.54
3960;BME280;1994;48.640;8.894;2023-08-24T11:53:19;95966.09;;;35.42;39.44
3960;BME280;1994;48.640;8.894;2023-08-24T11:55:45;95965.34;;;35.42;39.59
3960;BME280;1994;48.640;8.894;2023-08-24T11:58:17;95978.66;;;35.01;40.36
3960;BME280;1994;48.640;8.894;2023-08-24T12:00:43;95976.41;;;34.93;40.45
3960;BME280;1994;48.640;8.894;2023-08-24T12:03:10;95966.22;;;35.25;39.50
3960;BME280;1994;48.640;8.894;2023-08-24T12:05:36;95971.34;;;35.60;39.56
3960;BME280;1994;48.640;8.894;2023-08-24T12:08:03;95961.69;;;35.08;40.28
3960;BME280;1994;48.640;8.894;2023-08-24T12:10:29;95963.34;;;34.88;39.96
3960;BME280;1994;48.640;8.894;2023-08-24T12:13:05;95953.44;;;35.36;39.72
3960;BME280;1994;48.640;8.894;2023-08-24T12:15:37;95947.44;;;35.62;40.25
3960;BME280;1994;48.640;8.894;2023-08-24T12:18:15;95956.88;;;35.40;39.74
3960;BME280;1994;48.640;8.894;2023-08-24T12:20:41;95946.63;;;35.72;38.43
3960;BME280;1994;48.640;8.894;2023-08-24T12:23:10;95934.69;;;35.73;39.05
3960;BME280;1994;48.640;8.894;2023-08-24T12:25:45;95923.16;;;35.69;38.95
3960;BME280;1994;48.640;8.894;2023-08-24T12:28:13;95920.88;;;35.64;38.95
3960;BME280;1994;48.640;8.894;2023-08-24T12:30:52;95914.94;;;35.83;38.52
3960;BME280;1994;48.640;8.894;2023-08-24T12:33:22;95912.38;;;35.25;38.34
3960;BME280;1994;48.640;8.894;2023-08-24T12:35:49;95902.19;;;35.43;39.04
3960;BME280;1994;48.640;8.894;2023-08-24T12:38:15;95903.63;;;35.58;38.73
3960;BME280;1994;48.640;8.894;2023-08-24T12:40:40;95887.28;;;35.79;38.05
3960;BME280;1994;48.640;8.894;2023-08-24T12:43:06;95887.31;;;35.72;38.34
3960;BME280;1994;48.640;8.894;2023-08-24T12:45:32;95890.81;;;35.72;38.37
3960;BME280;1994;48.640;8.894;2023-08-24T12:47:58;95892.44;;;36.00;36.69
3960;BME280;1994;48.640;8.894;2023-08-24T12:50:23;95890.41;;;35.74;36.95
3960;BME280;1994;48.640;8.894;2023-08-24T12:52:49;95899.63;;;35.73;36.85
3960;BME280;1994;48.640;8.894;2023-08-24T12:55:20;95896.72;;;35.53;37.16
3960;BME280;1994;48.640;8.894;2023-08-24T12:57:46;95877.72;;;35.27;36.82
3960;BME280;1994;48.640;8.894;2023-08-24T13:00:15;95880.22;;;34.97;37.72
3960;BME280;1994;48.640;8.894;2023-08-24T13:02:41;95872.78;;;35.15;37.40
3960;BME280;1994;48.640;8.894;2023-08-24T13:05:07;95878.81;;;35.77;37.49
3960;BME280;1994;48.640;8.894;2023-08-24T13:07:34;95875.22;;;36.54;36.71
3960;BME280;1994;48.640;8.894;2023-08-24T13:09:59;95871.84;;;36.50;36.08
3960;BME280;1994;48.640;8.894;2023-08-24T13:12:25;95867.00;;;36.01;35.72
3960;BME280;1994;48.640;8.894;2023-08-24T13:14:51;95863.03;;;35.79;36.79
3960;BME280;1994;48.640;8.894;2023-08-24T13:17:20;95853.78;;;35.36;37.95
3960;BME280;1994;48.640;8.894;2023-08-24T13:19:45;95855.06;;;35.61;38.09
3960;BME280;1994;48.640;8.894;2023-08-24T13:22:14;95862.84;;;35.93;37.01
3960;BME280;1994;48.640;8.894;2023-08-24T13:24:41;95866.94;;;36.08;37.16
3960;BME280;1994;48.640;8.894;2023-08-24T13:27:09;95858.31;;;36.80;35.48
3960;BME280;1994;48.640;8.894;2023-08-24T13:29:40;95848.31;;;36.20;35.34
3960;BME280;1994;48.640;8.894;2023-08-24T13:32:06;95814.50;;;35.38;36.70
3960;BME280;1994;48.640;8.894;2023-08-24T13:34:38;95809.66;;;35.16;38.01
3960;BME280;1994;48.640;8.894;2023-08-24T13:37:06;95804.47;;;35.39;37.70
3960;BME280;1994;48.640;8.894;2023-08-24T13:39:32;95815.03;;;35.60;37.75
3960;BME280;1994;48.640;8.894;2023-08-24T13:41:59;95812.78;;;35.92;37.44
3960;BME280;1994;48.640;8.894;2023-08-24T13:44:25;95812.66;;;35.69;37.77
3960;BME280;1994;48.640;8.894;2023-08-24T13:46:51;95805.34;;;35.29;38.60
3960;BME280;1994;48.640;8.894;2023-08-24T13:49:19;95814.69;;;35.95;37.42
3960;BME280;1994;48.640;8.894;2023-08-24T13:51:44;95807.66;;;35.67;37.81
3960;BME280;1994;48.640;8.894;2023-08-24T13:54:15;95811.41;;;35.77;38.07
3960;BME280;1994;48.640;8.894;2023-08-24T13:56:46;95799.91;;;35.36;38.01
3960;BME280;1994;48.640;8.894;2023-08-24T13:59:13;95803.28;;;35.80;37.42
3960;BME280;1994;48.640;8.894;2023-08-24T14:01:40;95802.53;;;35.80;37.86